sensor_id;sensor_type;location;lat;lon;timestamp;temperature;humidity
48994;DHT22;34804;49.214;12.276;2022-11-11T00:01:11;3.40;94.70
48994;DHT22;34804;49.214;12.276;2022-11-11T00:03:38;3.30;94.40
48994;DHT22;34804;49.214;12.276;2022-11-11T00:06:10;3.30;94.50
48994;DHT22;34804;49.214;12.276;2022-11-11T00:08:37;3.50;94.60
48994;DHT22;34804;49.214;12.276;2022-11-11T00:11:10;3.40;94.40
48994;DHT22;34804;49.214;12.276;2022-11-11T00:13:37;3.40;94.20
48994;DHT22;34804;49.214;12.276;2022-11-11T00:16:06;3.50;94.10
48994;DHT22;34804;49.214;12.276;2022-11-11T00:18:34;3.40;93.60
48994;DHT22;34804;49.214;12.276;2022-11-11T00:21:20;3.30;93.80
48994;DHT22;34804;49.214;12.276;2022-11-11T00:24:27;3.20;93.70
48994;DHT22;34804;49.214;12.276;2022-11-11T00:27:13;3.30;94.20
48994;DHT22;34804;49.214;12.276;2022-11-11T00:29:40;3.30;94.20
48994;DHT22;34804;49.214;12.276;2022-11-11T00:32:11;3.30;94.00
48994;DHT22;34804;49.214;12.276;2022-11-11T00:34:54;3.30;94.20
48994;DHT22;34804;49.214;12.276;2022-11-11T00:37:40;3.50;94.60
48994;DHT22;34804;49.214;12.276;2022-11-11T00:40:09;3.60;94.50
48994;DHT22;34804;49.214;12.276;2022-11-11T00:42:36;3.70;94.20
48994;DHT22;34804;49.214;12.276;2022-11-11T00:45:04;3.70;94.10
48994;DHT22;34804;49.214;12.276;2022-11-11T00:47:31;3.60;93.40
48994;DHT22;34804;49.214;12.276;2022-11-11T00:50:25;3.60;93.50
48994;DHT22;34804;49.214;12.276;2022-11-11T00:53:12;3.60;93.60
48994;DHT22;34804;49.214;12.276;2022-11-11T00:55:39;3.40;93.30
48994;DHT22;34804;49.214;12.276;2022-11-11T00:58:06;3.40;93.60
48994;DHT22;34804;49.214;12.276;2022-11-11T01:00:33;3.60;94.10
48994;DHT22;34804;49.214;12.276;2022-11-11T01:03:00;3.70;94.10
48994;DHT22;34804;49.214;12.276;2022-11-11T01:05:27;3.70;93.90
48994;DHT22;34804;49.214;12.276;2022-11-11T01:07:54;3.70;93.70
48994;DHT22;34804;49.214;12.276;2022-11-11T01:10:22;3.60;93.50
48994;DHT22;34804;49.214;12.276;2022-11-11T01:13:16;3.60;93.80
48994;DHT22;34804;49.214;12.276;2022-11-11T01:15:46;3.60;93.70
48994;DHT22;34804;49.214;12.276;2022-11-11T01:18:15;3.40;93.80
48994;DHT22;34804;49.214;12.276;2022-11-11T01:20:42;3.40;94.10
48994;DHT22;34804;49.214;12.276;2022-11-11T01:23:11;3.40;94.20
48994;DHT22;34804;49.214;12.276;2022-11-11T01:25:40;3.40;94.30
48994;DHT22;34804;49.214;12.276;2022-11-11T01:28:08;3.50;94.80
48994;DHT22;34804;49.214;12.276;2022-11-11T01:30:36;3.70;95.20
48994;DHT22;34804;49.214;12.276;2022-11-11T01:33:03;3.80;95.20
48994;DHT22;34804;49.214;12.276;2022-11-11T01:35:30;3.80;95.00
48994;DHT22;34804;49.214;12.276;2022-11-11T01:37:57;3.80;94.90
48994;DHT22;34804;49.214;12.276;2022-11-11T01:40:25;3.90;94.90
48994;DHT22;34804;49.214;12.276;2022-11-11T01:43:13;3.80;94.50
48994;DHT22;34804;49.214;12.276;2022-11-11T01:45:52;3.80;94.90
48994;DHT22;34804;49.214;12.276;2022-11-11T01:48:28;3.80;94.80
48994;DHT22;34804;49.214;12.276;2022-11-11T01:51:20;3.90;94.80
48994;DHT22;34804;49.214;12.276;2022-11-11T01:53:55;3.90;95.00
48994;DHT22;34804;49.214;12.276;2022-11-11T01:56:25;4.00;95.10
48994;DHT22;34804;49.214;12.276;2022-11-11T01:58:55;4.00;95.10
48994;DHT22;34804;49.214;12.276;2022-11-11T02:01:22;4.00;95.00
48994;DHT22;34804;49.214;12.276;2022-11-11T02:03:51;3.90;94.80
48994;DHT22;34804;49.214;12.276;2022-11-11T02:06:38;3.90;94.80
48994;DHT22;34804;49.214;12.276;2022-11-11T02:09:06;3.90;94.80
48994;DHT22;34804;49.214;12.276;2022-11-11T02:11:35;3.80;95.00
48994;DHT22;34804;49.214;12.276;2022-11-11T02:14:22;3.90;95.20
48994;DHT22;34804;49.214;12.276;2022-11-11T02:17:08;3.90;95.00
48994;DHT22;34804;49.214;12.276;2022-11-11T02:19:54;3.90;95.20
48994;DHT22;34804;49.214;12.276;2022-11-11T02:22:37;4.00;95.10
48994;DHT22;34804;49.214;12.276;2022-11-11T02:25:06;3.90;95.10
48994;DHT22;34804;49.214;12.276;2022-11-11T02:27:36;4.10;95.50
48994;DHT22;34804;49.214;12.276;2022-11-11T02:30:05;4.00;95.30
48994;DHT22;34804;49.214;12.276;2022-11-11T02:32:32;4.00;95.20
48994;DHT22;34804;49.214;12.276;2022-11-11T02:34:59;4.00;95.10
48994;DHT22;34804;49.214;12.276;2022-11-11T02:37:27;3.90;95.10
48994;DHT22;34804;49.214;12.276;2022-11-11T02:40:01;4.00;95.20
48994;DHT22;34804;49.214;12.276;2022-11-11T02:42:33;4.00;95.30
48994;DHT22;34804;49.214;12.276;2022-11-11T02:45:00;4.00;95.40
48994;DHT22;34804;49.214;12.276;2022-11-11T02:47:28;4.00;95.50
48994;DHT22;34804;49.214;12.276;2022-11-11T02:49:55;4.10;95.50
48994;DHT22;34804;49.214;12.276;2022-11-11T02:52:22;4.00;95.40
48994;DHT22;34804;49.214;12.276;2022-11-11T02:54:49;4.00;95.20
48994;DHT22;34804;49.214;12.276;2022-11-11T02:57:16;4.00;95.20
48994;DHT22;34804;49.214;12.276;2022-11-11T02:59:43;4.10;95.30
48994;DHT22;34804;49.214;12.276;2022-11-11T03:02:11;4.10;95.30
48994;DHT22;34804;49.214;12.276;2022-11-11T03:04:38;4.10;95.20
48994;DHT22;34804;49.214;12.276;2022-11-11T03:07:05;4.00;95.00
48994;DHT22;34804;49.214;12.276;2022-11-11T03:09:33;4.00;95.20
48994;DHT22;34804;49.214;12.276;2022-11-11T03:12:00;4.10;95.30
48994;DHT22;34804;49.214;12.276;2022-11-11T03:14:28;4.10;95.20
48994;DHT22;34804;49.214;12.276;2022-11-11T03:16:54;4.00;95.20
48994;DHT22;34804;49.214;12.276;2022-11-11T03:19:40;4.00;95.20
48994;DHT22;34804;49.214;12.276;2022-11-11T03:22:07;3.90;95.20
48994;DHT22;34804;49.214;12.276;2022-11-11T03:24:54;4.00;95.20
48994;DHT22;34804;49.214;12.276;2022-11-11T03:27:40;4.10;95.50
48994;DHT22;34804;49.214;12.276;2022-11-11T03:30:08;4.10;95.20
48994;DHT22;34804;49.214;12.276;2022-11-11T03:32:35;4.10;95.30
48994;DHT22;34804;49.214;12.276;2022-11-11T03:35:01;4.20;95.70
48994;DHT22;34804;49.214;12.276;2022-11-11T03:37:30;4.20;95.50
48994;DHT22;34804;49.214;12.276;2022-11-11T03:40:16;4.20;95.50
48994;DHT22;34804;49.214;12.276;2022-11-11T03:42:42;4.10;95.50
48994;DHT22;34804;49.214;12.276;2022-11-11T03:45:09;4.10;95.40
48994;DHT22;34804;49.214;12.276;2022-11-11T03:47:39;4.10;95.50
48994;DHT22;34804;49.214;12.276;2022-11-11T03:50:06;4.00;95.40
48994;DHT22;34804;49.214;12.276;2022-11-11T03:52:33;4.10;95.50
48994;DHT22;34804;49.214;12.276;2022-11-11T03:54:59;4.00;95.50
48994;DHT22;34804;49.214;12.276;2022-11-11T03:57:26;4.00;95.60
48994;DHT22;34804;49.214;12.276;2022-11-11T03:59:56;3.90;95.50
48994;DHT22;34804;49.214;12.276;2022-11-11T04:02:23;3.90;95.70
48994;DHT22;34804;49.214;12.276;2022-11-11T04:05:08;4.00;95.90
48994;DHT22;34804;49.214;12.276;2022-11-11T04:07:53;4.20;96.20
48994;DHT22;34804;49.214;12.276;2022-11-11T04:10:39;4.30;96.20
48994;DHT22;34804;49.214;12.276;2022-11-11T04:13:06;4.30;96.30
48994;DHT22;34804;49.214;12.276;2022-11-11T04:15:52;4.30;96.00
48994;DHT22;34804;49.214;12.276;2022-11-11T04:18:34;4.30;95.80
48994;DHT22;34804;49.214;12.276;2022-11-11T04:21:21;4.20;95.90
48994;DHT22;34804;49.214;12.276;2022-11-11T04:24:08;4.20;95.80
48994;DHT22;34804;49.214;12.276;2022-11-11T04:27:04;4.20;96.00
48994;DHT22;34804;49.214;12.276;2022-11-11T04:29:31;4.40;96.20
48994;DHT22;34804;49.214;12.276;2022-11-11T04:32:09;4.40;96.10
48994;DHT22;34804;49.214;12.276;2022-11-11T04:34:56;4.40;96.10
48994;DHT22;34804;49.214;12.276;2022-11-11T04:37:25;4.30;95.90
48994;DHT22;34804;49.214;12.276;2022-11-11T04:39:52;4.20;95.60
48994;DHT22;34804;49.214;12.276;2022-11-11T04:42:38;4.10;95.40
48994;DHT22;34804;49.214;12.276;2022-11-11T04:45:06;4.00;95.50
48994;DHT22;34804;49.214;12.276;2022-11-11T04:48:05;3.90;95.30
48994;DHT22;34804;49.214;12.276;2022-11-11T04:50:37;3.90;95.40
48994;DHT22;34804;49.214;12.276;2022-11-11T04:53:07;3.80;95.40
48994;DHT22;34804;49.214;12.276;2022-11-11T04:55:33;3.90;95.60
48994;DHT22;34804;49.214;12.276;2022-11-11T04:58:21;3.90;95.70
48994;DHT22;34804;49.214;12.276;2022-11-11T05:00:48;3.90;95.80
48994;DHT22;34804;49.214;12.276;2022-11-11T05:03:15;4.00;95.80
48994;DHT22;34804;49.214;12.276;2022-11-11T05:05:49;4.00;95.80
48994;DHT22;34804;49.214;12.276;2022-11-11T05:08:40;3.90;95.60
48994;DHT22;34804;49.214;12.276;2022-11-11T05:11:25;3.90;95.70
48994;DHT22;34804;49.214;12.276;2022-11-11T05:13:53;3.90;95.70
48994;DHT22;34804;49.214;12.276;2022-11-11T05:16:44;3.90;95.80
48994;DHT22;34804;49.214;12.276;2022-11-11T05:19:30;4.00;95.90
48994;DHT22;34804;49.214;12.276;2022-11-11T05:24:42;4.00;95.90
48994;DHT22;34804;49.214;12.276;2022-11-11T05:27:28;4.00;96.00
48994;DHT22;34804;49.214;12.276;2022-11-11T05:29:55;4.10;96.10
48994;DHT22;34804;49.214;12.276;2022-11-11T05:32:23;4.20;96.20
48994;DHT22;34804;49.214;12.276;2022-11-11T05:34:50;4.20;96.20
48994;DHT22;34804;49.214;12.276;2022-11-11T05:37:17;4.30;96.20
48994;DHT22;34804;49.214;12.276;2022-11-11T05:39:45;4.30;96.20
48994;DHT22;34804;49.214;12.276;2022-11-11T05:42:12;4.40;96.30
48994;DHT22;34804;49.214;12.276;2022-11-11T05:44:39;4.30;96.20
48994;DHT22;34804;49.214;12.276;2022-11-11T05:47:06;4.30;96.10
48994;DHT22;34804;49.214;12.276;2022-11-11T05:49:33;4.30;95.90
48994;DHT22;34804;49.214;12.276;2022-11-11T05:52:00;4.30;95.90
48994;DHT22;34804;49.214;12.276;2022-11-11T05:54:27;4.20;95.80
48994;DHT22;34804;49.214;12.276;2022-11-11T05:56:54;4.20;95.80
48994;DHT22;34804;49.214;12.276;2022-11-11T05:59:21;4.10;95.90
48994;DHT22;34804;49.214;12.276;2022-11-11T06:01:47;4.20;96.00
48994;DHT22;34804;49.214;12.276;2022-11-11T06:04:15;4.20;96.00
48994;DHT22;34804;49.214;12.276;2022-11-11T06:06:44;4.20;96.00
48994;DHT22;34804;49.214;12.276;2022-11-11T06:09:11;4.10;95.90
48994;DHT22;34804;49.214;12.276;2022-11-11T06:11:38;4.20;96.00
48994;DHT22;34804;49.214;12.276;2022-11-11T06:14:05;4.20;96.00
48994;DHT22;34804;49.214;12.276;2022-11-11T06:16:32;4.20;95.90
48994;DHT22;34804;49.214;12.276;2022-11-11T06:18:59;4.20;96.00
48994;DHT22;34804;49.214;12.276;2022-11-11T06:21:26;4.30;96.20
48994;DHT22;34804;49.214;12.276;2022-11-11T06:23:53;4.30;96.20
48994;DHT22;34804;49.214;12.276;2022-11-11T06:26:20;4.40;96.30
48994;DHT22;34804;49.214;12.276;2022-11-11T06:28:52;4.50;96.40
48994;DHT22;34804;49.214;12.276;2022-11-11T06:31:21;4.40;96.10
48994;DHT22;34804;49.214;12.276;2022-11-11T06:33:49;4.40;96.00
48994;DHT22;34804;49.214;12.276;2022-11-11T06:36:19;4.40;96.20
48994;DHT22;34804;49.214;12.276;2022-11-11T06:38:46;4.50;96.10
48994;DHT22;34804;49.214;12.276;2022-11-11T06:41:13;4.50;96.30
48994;DHT22;34804;49.214;12.276;2022-11-11T06:43:42;4.60;96.40
48994;DHT22;34804;49.214;12.276;2022-11-11T06:46:21;4.60;96.20
48994;DHT22;34804;49.214;12.276;2022-11-11T06:48:49;4.60;96.20
48994;DHT22;34804;49.214;12.276;2022-11-11T06:51:16;4.60;96.10
48994;DHT22;34804;49.214;12.276;2022-11-11T06:53:44;4.60;96.10
48994;DHT22;34804;49.214;12.276;2022-11-11T06:56:11;4.60;95.90
48994;DHT22;34804;49.214;12.276;2022-11-11T06:58:38;4.60;96.00
48994;DHT22;34804;49.214;12.276;2022-11-11T07:01:06;4.60;96.00
48994;DHT22;34804;49.214;12.276;2022-11-11T07:03:33;4.60;96.00
48994;DHT22;34804;49.214;12.276;2022-11-11T07:06:01;4.60;95.80
48994;DHT22;34804;49.214;12.276;2022-11-11T07:08:28;4.60;95.80
48994;DHT22;34804;49.214;12.276;2022-11-11T07:10:56;4.60;95.70
48994;DHT22;34804;49.214;12.276;2022-11-11T07:13:22;4.60;95.80
48994;DHT22;34804;49.214;12.276;2022-11-11T07:15:49;4.60;95.90
48994;DHT22;34804;49.214;12.276;2022-11-11T07:18:16;4.70;95.90
48994;DHT22;34804;49.214;12.276;2022-11-11T07:20:43;4.70;95.70
48994;DHT22;34804;49.214;12.276;2022-11-11T07:23:10;4.60;95.50
48994;DHT22;34804;49.214;12.276;2022-11-11T07:25:36;4.70;95.70
48994;DHT22;34804;49.214;12.276;2022-11-11T07:28:03;4.70;95.70
48994;DHT22;34804;49.214;12.276;2022-11-11T07:30:30;4.60;95.50
48994;DHT22;34804;49.214;12.276;2022-11-11T07:32:57;4.60;95.20
48994;DHT22;34804;49.214;12.276;2022-11-11T07:35:24;4.60;95.10
48994;DHT22;34804;49.214;12.276;2022-11-11T07:37:50;4.50;94.90
48994;DHT22;34804;49.214;12.276;2022-11-11T07:40:19;4.50;95.20
48994;DHT22;34804;49.214;12.276;2022-11-11T07:42:46;4.60;95.40
48994;DHT22;34804;49.214;12.276;2022-11-11T07:45:13;4.50;95.10
48994;DHT22;34804;49.214;12.276;2022-11-11T07:47:43;4.50;95.10
48994;DHT22;34804;49.214;12.276;2022-11-11T07:50:11;4.50;95.10
48994;DHT22;34804;49.214;12.276;2022-11-11T07:52:38;4.50;95.00
48994;DHT22;34804;49.214;12.276;2022-11-11T07:55:06;4.60;95.40
48994;DHT22;34804;49.214;12.276;2022-11-11T07:57:35;4.50;95.20
48994;DHT22;34804;49.214;12.276;2022-11-11T08:00:03;4.50;95.30
48994;DHT22;34804;49.214;12.276;2022-11-11T08:02:30;4.60;95.50
48994;DHT22;34804;49.214;12.276;2022-11-11T08:04:58;4.60;95.40
48994;DHT22;34804;49.214;12.276;2022-11-11T08:07:24;4.60;95.40
48994;DHT22;34804;49.214;12.276;2022-11-11T08:09:51;4.60;95.50
48994;DHT22;34804;49.214;12.276;2022-11-11T08:12:18;4.70;95.30
48994;DHT22;34804;49.214;12.276;2022-11-11T08:15:05;4.80;95.50
48994;DHT22;34804;49.214;12.276;2022-11-11T08:17:37;4.80;95.50
48994;DHT22;34804;49.214;12.276;2022-11-11T08:20:08;4.80;95.20
48994;DHT22;34804;49.214;12.276;2022-11-11T08:22:40;4.80;95.60
48994;DHT22;34804;49.214;12.276;2022-11-11T08:25:09;4.80;95.00
48994;DHT22;34804;49.214;12.276;2022-11-11T08:27:37;4.80;95.40
48994;DHT22;34804;49.214;12.276;2022-11-11T08:30:06;4.90;95.70
48994;DHT22;34804;49.214;12.276;2022-11-11T08:32:33;5.10;95.80
48994;DHT22;34804;49.214;12.276;2022-11-11T08:35:00;5.20;95.60
48994;DHT22;34804;49.214;12.276;2022-11-11T08:37:28;5.10;94.90
48994;DHT22;34804;49.214;12.276;2022-11-11T08:39:55;5.10;95.10
48994;DHT22;34804;49.214;12.276;2022-11-11T08:42:23;5.10;95.20
48994;DHT22;34804;49.214;12.276;2022-11-11T08:44:50;5.20;95.40
48994;DHT22;34804;49.214;12.276;2022-11-11T08:47:17;5.30;95.40
48994;DHT22;34804;49.214;12.276;2022-11-11T08:49:46;5.30;95.20
48994;DHT22;34804;49.214;12.276;2022-11-11T08:52:15;5.30;95.10
48994;DHT22;34804;49.214;12.276;2022-11-11T08:54:47;5.40;95.30
48994;DHT22;34804;49.214;12.276;2022-11-11T08:57:14;5.60;95.40
48994;DHT22;34804;49.214;12.276;2022-11-11T08:59:41;5.60;95.30
48994;DHT22;34804;49.214;12.276;2022-11-11T09:02:10;5.60;95.00
48994;DHT22;34804;49.214;12.276;2022-11-11T09:04:39;5.80;95.20
48994;DHT22;34804;49.214;12.276;2022-11-11T09:07:11;5.90;94.90
48994;DHT22;34804;49.214;12.276;2022-11-11T09:09:38;6.00;94.90
48994;DHT22;34804;49.214;12.276;2022-11-11T09:12:05;6.10;94.60
48994;DHT22;34804;49.214;12.276;2022-11-11T09:14:32;6.20;94.00
48994;DHT22;34804;49.214;12.276;2022-11-11T09:16:59;6.30;94.00
48994;DHT22;34804;49.214;12.276;2022-11-11T09:19:26;6.20;92.90
48994;DHT22;34804;49.214;12.276;2022-11-11T09:21:53;6.20;93.40
48994;DHT22;34804;49.214;12.276;2022-11-11T09:24:19;6.20;92.90
48994;DHT22;34804;49.214;12.276;2022-11-11T09:26:48;6.20;93.40
48994;DHT22;34804;49.214;12.276;2022-11-11T09:29:15;6.20;92.70
48994;DHT22;34804;49.214;12.276;2022-11-11T09:31:42;6.20;93.00
48994;DHT22;34804;49.214;12.276;2022-11-11T09:34:12;6.10;93.10
48994;DHT22;34804;49.214;12.276;2022-11-11T09:36:40;6.30;93.40
48994;DHT22;34804;49.214;12.276;2022-11-11T09:39:06;6.30;93.40
48994;DHT22;34804;49.214;12.276;2022-11-11T09:41:53;6.40;93.30
48994;DHT22;34804;49.214;12.276;2022-11-11T09:49:59;6.40;93.20
48994;DHT22;34804;49.214;12.276;2022-11-11T09:52:32;6.50;93.30
48994;DHT22;34804;49.214;12.276;2022-11-11T09:55:19;6.50;92.80
48994;DHT22;34804;49.214;12.276;2022-11-11T09:57:54;6.50;93.20
48994;DHT22;34804;49.214;12.276;2022-11-11T10:00:30;6.60;93.50
48994;DHT22;34804;49.214;12.276;2022-11-11T10:03:00;6.60;93.30
48994;DHT22;34804;49.214;12.276;2022-11-11T10:05:47;6.70;93.60
48994;DHT22;34804;49.214;12.276;2022-11-11T10:08:34;6.70;93.80
48994;DHT22;34804;49.214;12.276;2022-11-11T10:11:09;6.80;94.10
48994;DHT22;34804;49.214;12.276;2022-11-11T10:13:37;7.10;94.20
48994;DHT22;34804;49.214;12.276;2022-11-11T10:19:21;7.30;93.80
48994;DHT22;34804;49.214;12.276;2022-11-11T10:21:57;7.40;93.70
48994;DHT22;34804;49.214;12.276;2022-11-11T10:24:42;7.50;93.60
48994;DHT22;34804;49.214;12.276;2022-11-11T10:27:21;7.60;93.30
48994;DHT22;34804;49.214;12.276;2022-11-11T10:29:49;7.50;92.70
48994;DHT22;34804;49.214;12.276;2022-11-11T10:32:28;7.20;92.10
48994;DHT22;34804;49.214;12.276;2022-11-11T10:35:21;7.10;92.80
48994;DHT22;34804;49.214;12.276;2022-11-11T10:37:56;7.10;93.20
48994;DHT22;34804;49.214;12.276;2022-11-11T10:40:28;7.00;92.80
48994;DHT22;34804;49.214;12.276;2022-11-11T10:42:58;6.90;93.50
48994;DHT22;34804;49.214;12.276;2022-11-11T10:45:45;7.00;93.70
48994;DHT22;34804;49.214;12.276;2022-11-11T10:48:19;7.10;93.60
48994;DHT22;34804;49.214;12.276;2022-11-11T10:50:51;7.10;93.60
48994;DHT22;34804;49.214;12.276;2022-11-11T10:58:59;7.20;92.90
48994;DHT22;34804;49.214;12.276;2022-11-11T11:01:35;7.30;93.50
48994;DHT22;34804;49.214;12.276;2022-11-11T11:04:14;7.30;93.00
48994;DHT22;34804;49.214;12.276;2022-11-11T11:06:44;7.30;93.10
48994;DHT22;34804;49.214;12.276;2022-11-11T11:09:35;7.40;93.20
48994;DHT22;34804;49.214;12.276;2022-11-11T11:12:16;7.40;93.20
48994;DHT22;34804;49.214;12.276;2022-11-11T11:14:47;7.30;93.00
48994;DHT22;34804;49.214;12.276;2022-11-11T11:17:26;7.40;93.40
48994;DHT22;34804;49.214;12.276;2022-11-11T11:20:08;7.40;93.20
48994;DHT22;34804;49.214;12.276;2022-11-11T11:22:55;7.60;93.30
48994;DHT22;34804;49.214;12.276;2022-11-11T11:25:26;7.60;93.70
48994;DHT22;34804;49.214;12.276;2022-11-11T11:28:12;7.70;92.80
48994;DHT22;34804;49.214;12.276;2022-11-11T11:30:39;7.80;92.60
48994;DHT22;34804;49.214;12.276;2022-11-11T11:33:07;7.60;92.30
48994;DHT22;34804;49.214;12.276;2022-11-11T11:35:43;7.60;92.80
48994;DHT22;34804;49.214;12.276;2022-11-11T11:38:11;7.50;92.60
48994;DHT22;34804;49.214;12.276;2022-11-11T11:40:51;7.50;92.70
48994;DHT22;34804;49.214;12.276;2022-11-11T11:43:24;7.50;92.90
48994;DHT22;34804;49.214;12.276;2022-11-11T11:45:57;7.50;92.90
48994;DHT22;34804;49.214;12.276;2022-11-11T11:51:12;7.60;93.20
48994;DHT22;34804;49.214;12.276;2022-11-11T11:56:50;7.60;93.20
48994;DHT22;34804;49.214;12.276;2022-11-11T11:59:27;7.80;93.20
48994;DHT22;34804;49.214;12.276;2022-11-11T12:14:06;7.80;93.60
48994;DHT22;34804;49.214;12.276;2022-11-11T12:16:46;7.90;93.80
48994;DHT22;34804;49.214;12.276;2022-11-11T12:30:23;7.90;93.90
48994;DHT22;34804;49.214;12.276;2022-11-11T12:38:25;7.90;93.80
48994;DHT22;34804;49.214;12.276;2022-11-11T12:41:04;7.80;93.90
48994;DHT22;34804;49.214;12.276;2022-11-11T12:44:05;7.80;94.10
48994;DHT22;34804;49.214;12.276;2022-11-11T12:46:39;7.80;94.10
48994;DHT22;34804;49.214;12.276;2022-11-11T12:54:53;7.90;94.30
48994;DHT22;34804;49.214;12.276;2022-11-11T12:57:28;7.80;93.80
48994;DHT22;34804;49.214;12.276;2022-11-11T13:08:00;7.90;94.10
48994;DHT22;34804;49.214;12.276;2022-11-11T13:15:31;8.20;94.20
48994;DHT22;34804;49.214;12.276;2022-11-11T13:17:59;8.30;94.10
48994;DHT22;34804;49.214;12.276;2022-11-11T13:23:16;8.30;93.70
48994;DHT22;34804;49.214;12.276;2022-11-11T13:25:48;8.30;93.50
48994;DHT22;34804;49.214;12.276;2022-11-11T13:28:21;8.30;93.50
48994;DHT22;34804;49.214;12.276;2022-11-11T13:31:02;8.30;93.80
48994;DHT22;34804;49.214;12.276;2022-11-11T13:33:54;8.30;93.90
48994;DHT22;34804;49.214;12.276;2022-11-11T13:36:26;8.30;93.80
48994;DHT22;34804;49.214;12.276;2022-11-11T13:39:01;8.30;94.00
48994;DHT22;34804;49.214;12.276;2022-11-11T13:41:32;8.30;94.00
48994;DHT22;34804;49.214;12.276;2022-11-11T13:44:05;8.30;93.90
48994;DHT22;34804;49.214;12.276;2022-11-11T13:46:39;8.30;94.10
48994;DHT22;34804;49.214;12.276;2022-11-11T13:49:52;8.30;94.10
48994;DHT22;34804;49.214;12.276;2022-11-11T13:52:33;8.30;94.40
48994;DHT22;34804;49.214;12.276;2022-11-11T13:55:01;8.50;94.50
48994;DHT22;34804;49.214;12.276;2022-11-11T13:57:30;8.60;94.40
48994;DHT22;34804;49.214;12.276;2022-11-11T14:00:03;8.50;94.00
48994;DHT22;34804;49.214;12.276;2022-11-11T14:02:34;8.50;93.90
48994;DHT22;34804;49.214;12.276;2022-11-11T14:07:47;8.50;94.30
48994;DHT22;34804;49.214;12.276;2022-11-11T14:12:47;8.50;94.10
48994;DHT22;34804;49.214;12.276;2022-11-11T14:15:38;8.40;94.10
48994;DHT22;34804;49.214;12.276;2022-11-11T14:20:51;8.40;94.30
48994;DHT22;34804;49.214;12.276;2022-11-11T14:23:40;8.40;94.20
48994;DHT22;34804;49.214;12.276;2022-11-11T14:58:34;8.00;95.10
48994;DHT22;34804;49.214;12.276;2022-11-11T15:03:47;8.00;95.30
48994;DHT22;34804;49.214;12.276;2022-11-11T15:06:31;8.10;95.30
48994;DHT22;34804;49.214;12.276;2022-11-11T15:09:42;8.00;95.40
48994;DHT22;34804;49.214;12.276;2022-11-11T15:15:20;7.90;95.50
48994;DHT22;34804;49.214;12.276;2022-11-11T15:21:19;8.00;95.70
48994;DHT22;34804;49.214;12.276;2022-11-11T15:27:00;8.00;95.80
48994;DHT22;34804;49.214;12.276;2022-11-11T15:29:49;8.00;95.70
48994;DHT22;34804;49.214;12.276;2022-11-11T15:37:52;7.90;95.70
48994;DHT22;34804;49.214;12.276;2022-11-11T15:40:21;7.90;95.80
48994;DHT22;34804;49.214;12.276;2022-11-11T15:42:48;7.90;95.80
48994;DHT22;34804;49.214;12.276;2022-11-11T15:47:44;7.80;96.00
48994;DHT22;34804;49.214;12.276;2022-11-11T15:50:28;7.80;96.10
48994;DHT22;34804;49.214;12.276;2022-11-11T15:52:57;7.80;96.10
48994;DHT22;34804;49.214;12.276;2022-11-11T15:55:34;7.80;96.10
48994;DHT22;34804;49.214;12.276;2022-11-11T15:58:16;7.80;96.30
48994;DHT22;34804;49.214;12.276;2022-11-11T16:00:44;7.80;96.30
48994;DHT22;34804;49.214;12.276;2022-11-11T16:03:19;7.80;96.30
48994;DHT22;34804;49.214;12.276;2022-11-11T16:05:47;7.80;96.40
48994;DHT22;34804;49.214;12.276;2022-11-11T16:08:17;7.70;96.30
48994;DHT22;34804;49.214;12.276;2022-11-11T16:10:55;7.70;96.30
48994;DHT22;34804;49.214;12.276;2022-11-11T16:16:32;7.70;96.50
48994;DHT22;34804;49.214;12.276;2022-11-11T16:19:33;7.70;96.40
48994;DHT22;34804;49.214;12.276;2022-11-11T16:22:21;7.70;96.40
48994;DHT22;34804;49.214;12.276;2022-11-11T16:24:50;7.70;96.40
48994;DHT22;34804;49.214;12.276;2022-11-11T16:27:19;7.60;96.40
48994;DHT22;34804;49.214;12.276;2022-11-11T16:29:48;7.60;96.50
48994;DHT22;34804;49.214;12.276;2022-11-11T16:34:45;7.80;96.60
48994;DHT22;34804;49.214;12.276;2022-11-11T16:37:15;7.80;96.60
48994;DHT22;34804;49.214;12.276;2022-11-11T16:39:46;7.80;96.60
48994;DHT22;34804;49.214;12.276;2022-11-11T16:42:26;7.80;96.60
48994;DHT22;34804;49.214;12.276;2022-11-11T16:44:57;7.80;96.60
48994;DHT22;34804;49.214;12.276;2022-11-11T16:52:52;7.80;96.50
48994;DHT22;34804;49.214;12.276;2022-11-11T16:57:51;7.80;96.60
48994;DHT22;34804;49.214;12.276;2022-11-11T17:00:21;7.70;96.60
48994;DHT22;34804;49.214;12.276;2022-11-11T17:03:20;7.70;96.60
48994;DHT22;34804;49.214;12.276;2022-11-11T17:05:53;7.70;96.60
48994;DHT22;34804;49.214;12.276;2022-11-11T17:08:30;7.70;96.50
48994;DHT22;34804;49.214;12.276;2022-11-11T17:10:58;7.70;96.60
48994;DHT22;34804;49.214;12.276;2022-11-11T17:13:26;7.70;96.60
48994;DHT22;34804;49.214;12.276;2022-11-11T17:15:55;7.70;96.60
48994;DHT22;34804;49.214;12.276;2022-11-11T17:18:27;7.60;96.40
48994;DHT22;34804;49.214;12.276;2022-11-11T17:20:54;7.50;96.40
48994;DHT22;34804;49.214;12.276;2022-11-11T17:23:22;7.50;96.40
48994;DHT22;34804;49.214;12.276;2022-11-11T17:25:56;7.50;96.50
48994;DHT22;34804;49.214;12.276;2022-11-11T17:28:35;7.50;96.60
48994;DHT22;34804;49.214;12.276;2022-11-11T17:31:04;7.60;96.70
48994;DHT22;34804;49.214;12.276;2022-11-11T17:33:31;7.60;96.70
48994;DHT22;34804;49.214;12.276;2022-11-11T17:35:57;7.60;96.60
48994;DHT22;34804;49.214;12.276;2022-11-11T17:38:27;7.60;96.60
48994;DHT22;34804;49.214;12.276;2022-11-11T17:40:53;7.50;96.60
48994;DHT22;34804;49.214;12.276;2022-11-11T17:43:20;7.60;96.60
48994;DHT22;34804;49.214;12.276;2022-11-11T17:45:47;7.60;96.60
48994;DHT22;34804;49.214;12.276;2022-11-11T17:48:14;7.60;96.60
48994;DHT22;34804;49.214;12.276;2022-11-11T17:50:41;7.60;96.70
48994;DHT22;34804;49.214;12.276;2022-11-11T17:53:08;7.50;96.60
48994;DHT22;34804;49.214;12.276;2022-11-11T17:55:49;7.50;96.50
48994;DHT22;34804;49.214;12.276;2022-11-11T17:58:18;7.40;96.30
48994;DHT22;34804;49.214;12.276;2022-11-11T18:00:45;7.30;96.20
48994;DHT22;34804;49.214;12.276;2022-11-11T18:03:12;7.20;96.20
48994;DHT22;34804;49.214;12.276;2022-11-11T18:05:39;7.20;96.50
48994;DHT22;34804;49.214;12.276;2022-11-11T18:08:05;7.10;96.20
48994;DHT22;34804;49.214;12.276;2022-11-11T18:10:32;7.10;96.50
48994;DHT22;34804;49.214;12.276;2022-11-11T18:12:59;7.20;96.50
48994;DHT22;34804;49.214;12.276;2022-11-11T18:15:26;7.20;96.50
48994;DHT22;34804;49.214;12.276;2022-11-11T18:17:53;7.10;96.30
48994;DHT22;34804;49.214;12.276;2022-11-11T18:20:19;7.10;96.40
48994;DHT22;34804;49.214;12.276;2022-11-11T18:22:46;7.10;96.50
48994;DHT22;34804;49.214;12.276;2022-11-11T18:25:13;7.20;96.60
48994;DHT22;34804;49.214;12.276;2022-11-11T18:27:40;7.20;96.60
48994;DHT22;34804;49.214;12.276;2022-11-11T18:30:07;7.20;96.60